sensor_id;sensor_type;location;lat;lon;timestamp;P1;durP1;ratioP1;P2;durP2;ratioP2
823;SDS011;373;49.342;8.146;2023-07-20T00:06:14;1.70;;;1.05;;
823;SDS011;373;49.342;8.146;2023-07-20T00:08:49;1.50;;;1.40;;
823;SDS011;373;49.342;8.146;2023-07-20T00:16:16;2.42;;;1.67;;
823;SDS011;373;49.342;8.146;2023-07-20T00:20:00;2.40;;;1.40;;
823;SDS011;373;49.342;8.146;2023-07-20T02:52:14;1.75;;;1.50;;
823;SDS011;373;49.342;8.146;2023-07-20T02:54:41;3.00;;;2.13;;
823;SDS011;373;49.342;8.146;2023-07-20T02:57:08;2.60;;;1.55;;
823;SDS011;373;49.342;8.146;2023-07-20T02:59:35;1.92;;;1.63;;
823;SDS011;373;49.342;8.146;2023-07-20T03:02:03;1.88;;;1.63;;
823;SDS011;373;49.342;8.146;2023-07-20T03:04:30;2.05;;;1.55;;
823;SDS011;373;49.342;8.146;2023-07-20T03:06:57;3.72;;;2.40;;
823;SDS011;373;49.342;8.146;2023-07-20T03:09:26;1.85;;;1.63;;
823;SDS011;373;49.342;8.146;2023-07-20T03:11:54;2.83;;;2.00;;
823;SDS011;373;49.342;8.146;2023-07-20T03:14:21;1.85;;;1.65;;
823;SDS011;373;49.342;8.146;2023-07-20T03:16:49;1.65;;;1.52;;
823;SDS011;373;49.342;8.146;2023-07-20T03:19:16;2.78;;;1.90;;
823;SDS011;373;49.342;8.146;2023-07-20T03:21:43;2.70;;;1.83;;
823;SDS011;373;49.342;8.146;2023-07-20T03:24:10;5.05;;;2.20;;
823;SDS011;373;49.342;8.146;2023-07-20T03:26:39;2.03;;;1.77;;
823;SDS011;373;49.342;8.146;2023-07-20T03:29:07;2.15;;;1.90;;
823;SDS011;373;49.342;8.146;2023-07-20T03:31:34;2.20;;;1.70;;
823;SDS011;373;49.342;8.146;2023-07-20T03:34:01;1.77;;;1.60;;
823;SDS011;373;49.342;8.146;2023-07-20T03:36:28;3.22;;;2.22;;
823;SDS011;373;49.342;8.146;2023-07-20T03:38:58;2.42;;;1.80;;
823;SDS011;373;49.342;8.146;2023-07-20T03:41:25;2.55;;;1.70;;
823;SDS011;373;49.342;8.146;2023-07-20T03:43:54;3.13;;;2.03;;
823;SDS011;373;49.342;8.146;2023-07-20T03:46:24;2.85;;;1.75;;
823;SDS011;373;49.342;8.146;2023-07-20T03:48:51;3.15;;;1.70;;
823;SDS011;373;49.342;8.146;2023-07-20T03:51:18;2.97;;;2.05;;
823;SDS011;373;49.342;8.146;2023-07-20T03:53:45;2.90;;;2.03;;
823;SDS011;373;49.342;8.146;2023-07-20T03:56:12;2.42;;;1.77;;
823;SDS011;373;49.342;8.146;2023-07-20T03:58:39;3.58;;;2.13;;
823;SDS011;373;49.342;8.146;2023-07-20T04:01:08;2.08;;;1.80;;
823;SDS011;373;49.342;8.146;2023-07-20T04:03:35;3.55;;;1.58;;
823;SDS011;373;49.342;8.146;2023-07-20T04:06:02;2.50;;;1.90;;
823;SDS011;373;49.342;8.146;2023-07-20T04:08:29;3.08;;;1.92;;
823;SDS011;373;49.342;8.146;2023-07-20T04:10:58;2.47;;;1.75;;
823;SDS011;373;49.342;8.146;2023-07-20T04:13:28;3.58;;;1.80;;
823;SDS011;373;49.342;8.146;2023-07-20T04:15:58;3.08;;;1.80;;
823;SDS011;373;49.342;8.146;2023-07-20T04:18:27;1.90;;;1.40;;
823;SDS011;373;49.342;8.146;2023-07-20T04:20:54;1.83;;;1.52;;
823;SDS011;373;49.342;8.146;2023-07-20T04:23:21;3.28;;;1.77;;
823;SDS011;373;49.342;8.146;2023-07-20T04:25:50;1.92;;;1.70;;
823;SDS011;373;49.342;8.146;2023-07-20T04:28:17;3.17;;;1.50;;
823;SDS011;373;49.342;8.146;2023-07-20T04:30:48;2.28;;;1.98;;
823;SDS011;373;49.342;8.146;2023-07-20T04:33:16;2.28;;;1.90;;
823;SDS011;373;49.342;8.146;2023-07-20T04:35:46;2.38;;;1.65;;
823;SDS011;373;49.342;8.146;2023-07-20T04:38:17;2.00;;;1.83;;
823;SDS011;373;49.342;8.146;2023-07-20T04:40:48;2.03;;;1.42;;
823;SDS011;373;49.342;8.146;2023-07-20T04:43:17;1.73;;;1.27;;
823;SDS011;373;49.342;8.146;2023-07-20T04:45:45;2.42;;;2.00;;
823;SDS011;373;49.342;8.146;2023-07-20T04:48:13;1.75;;;1.63;;
823;SDS011;373;49.342;8.146;2023-07-20T04:50:52;3.75;;;1.58;;
823;SDS011;373;49.342;8.146;2023-07-20T04:53:19;1.75;;;1.63;;
823;SDS011;373;49.342;8.146;2023-07-20T04:55:47;2.97;;;2.15;;
823;SDS011;373;49.342;8.146;2023-07-20T04:58:18;3.42;;;1.60;;
823;SDS011;373;49.342;8.146;2023-07-20T05:00:45;2.33;;;1.33;;
823;SDS011;373;49.342;8.146;2023-07-20T05:03:12;1.60;;;1.50;;
823;SDS011;373;49.342;8.146;2023-07-20T05:05:39;2.72;;;1.75;;
823;SDS011;373;49.342;8.146;2023-07-20T05:08:08;3.13;;;1.67;;
823;SDS011;373;49.342;8.146;2023-07-20T05:10:35;1.92;;;1.65;;
823;SDS011;373;49.342;8.146;2023-07-20T05:13:02;1.98;;;1.40;;
823;SDS011;373;49.342;8.146;2023-07-20T05:15:29;2.80;;;1.65;;
823;SDS011;373;49.342;8.146;2023-07-20T05:17:59;2.67;;;1.90;;
823;SDS011;373;49.342;8.146;2023-07-20T05:20:26;2.53;;;2.08;;
823;SDS011;373;49.342;8.146;2023-07-20T05:22:54;1.98;;;1.63;;
823;SDS011;373;49.342;8.146;2023-07-20T05:25:22;2.95;;;2.28;;
823;SDS011;373;49.342;8.146;2023-07-20T05:27:50;1.90;;;1.25;;
823;SDS011;373;49.342;8.146;2023-07-20T05:30:20;2.15;;;1.90;;
823;SDS011;373;49.342;8.146;2023-07-20T05:32:47;5.22;;;2.00;;
823;SDS011;373;49.342;8.146;2023-07-20T05:35:16;2.55;;;1.55;;
823;SDS011;373;49.342;8.146;2023-07-20T05:37:43;2.42;;;2.10;;
823;SDS011;373;49.342;8.146;2023-07-20T05:40:11;1.58;;;1.48;;
823;SDS011;373;49.342;8.146;2023-07-20T05:42:40;2.35;;;1.55;;
823;SDS011;373;49.342;8.146;2023-07-20T05:45:07;1.90;;;1.80;;
823;SDS011;373;49.342;8.146;2023-07-20T05:47:35;2.00;;;1.85;;
823;SDS011;373;49.342;8.146;2023-07-20T05:50:02;1.60;;;1.42;;
823;SDS011;373;49.342;8.146;2023-07-20T05:52:29;3.30;;;1.67;;
823;SDS011;373;49.342;8.146;2023-07-20T05:54:56;1.48;;;1.38;;
823;SDS011;373;49.342;8.146;2023-07-20T05:57:23;1.83;;;1.70;;
823;SDS011;373;49.342;8.146;2023-07-20T05:59:52;2.35;;;1.88;;
823;SDS011;373;49.342;8.146;2023-07-20T06:02:19;2.22;;;1.58;;
823;SDS011;373;49.342;8.146;2023-07-20T06:04:46;4.13;;;1.75;;
823;SDS011;373;49.342;8.146;2023-07-20T06:07:13;3.10;;;1.80;;
823;SDS011;373;49.342;8.146;2023-07-20T06:09:40;3.15;;;2.42;;
823;SDS011;373;49.342;8.146;2023-07-20T06:12:07;2.08;;;1.70;;
823;SDS011;373;49.342;8.146;2023-07-20T06:14:35;1.90;;;1.60;;
823;SDS011;373;49.342;8.146;2023-07-20T06:17:04;2.50;;;1.70;;
823;SDS011;373;49.342;8.146;2023-07-20T06:19:31;2.70;;;1.75;;
823;SDS011;373;49.342;8.146;2023-07-20T06:21:58;2.33;;;1.80;;
823;SDS011;373;49.342;8.146;2023-07-20T06:24:25;1.80;;;1.70;;
823;SDS011;373;49.342;8.146;2023-07-20T06:26:53;4.15;;;2.25;;
823;SDS011;373;49.342;8.146;2023-07-20T06:29:20;4.53;;;2.33;;
823;SDS011;373;49.342;8.146;2023-07-20T06:31:47;5.03;;;2.50;;
823;SDS011;373;49.342;8.146;2023-07-20T06:34:16;3.92;;;2.03;;
823;SDS011;373;49.342;8.146;2023-07-20T06:36:43;2.60;;;1.77;;
823;SDS011;373;49.342;8.146;2023-07-20T06:39:12;3.30;;;1.83;;
823;SDS011;373;49.342;8.146;2023-07-20T06:41:39;2.72;;;1.52;;
823;SDS011;373;49.342;8.146;2023-07-20T06:44:06;4.10;;;1.85;;
823;SDS011;373;49.342;8.146;2023-07-20T06:46:33;3.00;;;1.80;;
823;SDS011;373;49.342;8.146;2023-07-20T06:49:01;5.05;;;1.70;;
823;SDS011;373;49.342;8.146;2023-07-20T06:51:29;3.28;;;1.42;;
823;SDS011;373;49.342;8.146;2023-07-20T06:53:56;3.08;;;1.75;;
823;SDS011;373;49.342;8.146;2023-07-20T06:56:23;3.22;;;1.80;;
823;SDS011;373;49.342;8.146;2023-07-20T06:58:50;3.65;;;1.98;;
823;SDS011;373;49.342;8.146;2023-07-20T07:01:17;2.83;;;1.67;;
823;SDS011;373;49.342;8.146;2023-07-20T07:03:46;2.88;;;1.80;;
823;SDS011;373;49.342;8.146;2023-07-20T07:06:13;2.88;;;1.42;;
823;SDS011;373;49.342;8.146;2023-07-20T07:08:41;4.93;;;2.10;;
823;SDS011;373;49.342;8.146;2023-07-20T07:11:10;3.17;;;1.50;;
823;SDS011;373;49.342;8.146;2023-07-20T07:13:37;1.52;;;1.42;;
823;SDS011;373;49.342;8.146;2023-07-20T07:16:04;1.63;;;1.48;;
823;SDS011;373;49.342;8.146;2023-07-20T07:18:31;2.88;;;1.55;;
823;SDS011;373;49.342;8.146;2023-07-20T07:20:58;1.60;;;1.50;;
823;SDS011;373;49.342;8.146;2023-07-20T07:23:25;4.65;;;1.58;;
823;SDS011;373;49.342;8.146;2023-07-20T07:25:54;2.40;;;1.40;;
823;SDS011;373;49.342;8.146;2023-07-20T07:28:21;4.32;;;1.60;;
823;SDS011;373;49.342;8.146;2023-07-20T07:30:48;2.70;;;1.67;;
823;SDS011;373;49.342;8.146;2023-07-20T07:33:15;2.50;;;1.48;;
823;SDS011;373;49.342;8.146;2023-07-20T07:35:42;1.70;;;1.60;;
823;SDS011;373;49.342;8.146;2023-07-20T07:38:09;2.28;;;1.40;;
823;SDS011;373;49.342;8.146;2023-07-20T07:40:36;2.28;;;1.33;;
823;SDS011;373;49.342;8.146;2023-07-20T07:43:05;2.38;;;1.52;;
823;SDS011;373;49.342;8.146;2023-07-20T07:45:34;2.40;;;1.48;;
823;SDS011;373;49.342;8.146;2023-07-20T07:48:03;2.58;;;1.50;;
823;SDS011;373;49.342;8.146;2023-07-20T07:50:30;3.00;;;1.60;;
823;SDS011;373;49.342;8.146;2023-07-20T07:52:57;4.13;;;1.60;;
823;SDS011;373;49.342;8.146;2023-07-20T07:55:24;2.38;;;1.52;;
823;SDS011;373;49.342;8.146;2023-07-20T07:57:53;4.15;;;1.55;;
823;SDS011;373;49.342;8.146;2023-07-20T08:00:21;2.67;;;1.52;;
823;SDS011;373;49.342;8.146;2023-07-20T08:02:49;1.20;;;1.13;;
823;SDS011;373;49.342;8.146;2023-07-20T08:05:17;2.97;;;1.80;;
823;SDS011;373;49.342;8.146;2023-07-20T08:07:44;2.28;;;1.50;;
823;SDS011;373;49.342;8.146;2023-07-20T08:10:11;2.65;;;1.60;;
823;SDS011;373;49.342;8.146;2023-07-20T08:12:38;1.95;;;1.77;;
823;SDS011;373;49.342;8.146;2023-07-20T08:15:06;3.63;;;1.48;;
823;SDS011;373;49.342;8.146;2023-07-20T08:17:35;1.58;;;1.23;;
823;SDS011;373;49.342;8.146;2023-07-20T08:20:02;1.33;;;1.23;;
823;SDS011;373;49.342;8.146;2023-07-20T08:22:31;2.30;;;1.48;;
823;SDS011;373;49.342;8.146;2023-07-20T08:24:58;2.83;;;1.42;;
823;SDS011;373;49.342;8.146;2023-07-20T08:27:25;3.70;;;1.50;;
823;SDS011;373;49.342;8.146;2023-07-20T08:29:52;1.67;;;1.52;;
823;SDS011;373;49.342;8.146;2023-07-20T08:32:20;1.90;;;1.70;;
823;SDS011;373;49.342;8.146;2023-07-20T08:34:48;3.67;;;1.60;;
823;SDS011;373;49.342;8.146;2023-07-20T08:37:15;1.92;;;1.40;;
823;SDS011;373;49.342;8.146;2023-07-20T08:39:42;2.45;;;1.40;;
823;SDS011;373;49.342;8.146;2023-07-20T08:42:09;1.30;;;1.20;;
823;SDS011;373;49.342;8.146;2023-07-20T08:44:38;1.90;;;1.30;;
823;SDS011;373;49.342;8.146;2023-07-20T08:47:07;2.25;;;1.60;;
823;SDS011;373;49.342;8.146;2023-07-20T08:49:35;1.30;;;1.00;;
823;SDS011;373;49.342;8.146;2023-07-20T08:52:05;2.40;;;1.45;;
823;SDS011;373;49.342;8.146;2023-07-20T08:54:33;2.65;;;1.67;;
823;SDS011;373;49.342;8.146;2023-07-20T08:57:01;1.15;;;1.08;;
823;SDS011;373;49.342;8.146;2023-07-20T08:59:29;2.05;;;1.42;;
823;SDS011;373;49.342;8.146;2023-07-20T09:01:58;2.95;;;1.50;;
823;SDS011;373;49.342;8.146;2023-07-20T09:04:26;2.13;;;1.40;;
823;SDS011;373;49.342;8.146;2023-07-20T09:06:53;1.63;;;1.20;;
823;SDS011;373;49.342;8.146;2023-07-20T09:09:21;1.90;;;1.20;;
823;SDS011;373;49.342;8.146;2023-07-20T09:11:48;3.50;;;1.67;;
823;SDS011;373;49.342;8.146;2023-07-20T09:14:16;2.28;;;1.17;;
823;SDS011;373;49.342;8.146;2023-07-20T09:16:47;2.00;;;1.45;;
823;SDS011;373;49.342;8.146;2023-07-20T09:19:15;2.58;;;1.30;;
823;SDS011;373;49.342;8.146;2023-07-20T09:21:44;1.77;;;1.30;;
823;SDS011;373;49.342;8.146;2023-07-20T09:24:12;1.67;;;1.30;;
823;SDS011;373;49.342;8.146;2023-07-20T09:26:44;1.48;;;1.08;;
823;SDS011;373;49.342;8.146;2023-07-20T09:29:13;1.45;;;1.13;;
823;SDS011;373;49.342;8.146;2023-07-20T09:31:41;1.42;;;1.20;;
823;SDS011;373;49.342;8.146;2023-07-20T09:34:08;1.80;;;1.48;;
823;SDS011;373;49.342;8.146;2023-07-20T09:36:35;1.98;;;1.60;;
823;SDS011;373;49.342;8.146;2023-07-20T09:39:03;1.55;;;1.20;;
823;SDS011;373;49.342;8.146;2023-07-20T09:41:39;1.38;;;1.05;;
823;SDS011;373;49.342;8.146;2023-07-20T09:44:08;2.45;;;1.08;;
823;SDS011;373;49.342;8.146;2023-07-20T09:46:44;1.20;;;1.00;;
823;SDS011;373;49.342;8.146;2023-07-20T09:49:14;1.52;;;0.93;;
823;SDS011;373;49.342;8.146;2023-07-20T09:51:43;1.38;;;1.15;;
823;SDS011;373;49.342;8.146;2023-07-20T09:54:13;2.15;;;1.10;;
823;SDS011;373;49.342;8.146;2023-07-20T09:56:40;2.65;;;1.48;;
823;SDS011;373;49.342;8.146;2023-07-20T09:59:09;1.30;;;0.98;;
823;SDS011;373;49.342;8.146;2023-07-20T10:01:36;1.40;;;1.17;;
823;SDS011;373;49.342;8.146;2023-07-20T10:04:08;1.58;;;1.20;;
823;SDS011;373;49.342;8.146;2023-07-20T10:06:39;0.98;;;0.95;;
823;SDS011;373;49.342;8.146;2023-07-20T10:09:09;1.33;;;1.10;;
823;SDS011;373;49.342;8.146;2023-07-20T10:11:40;1.73;;;1.40;;
823;SDS011;373;49.342;8.146;2023-07-20T10:14:11;1.67;;;1.40;;
823;SDS011;373;49.342;8.146;2023-07-20T10:16:42;1.25;;;0.80;;
823;SDS011;373;49.342;8.146;2023-07-20T10:19:13;1.23;;;1.10;;
823;SDS011;373;49.342;8.146;2023-07-20T10:21:59;1.52;;;1.10;;
823;SDS011;373;49.342;8.146;2023-07-20T10:24:29;1.85;;;1.30;;
823;SDS011;373;49.342;8.146;2023-07-20T10:26:58;1.63;;;0.98;;
823;SDS011;373;49.342;8.146;2023-07-20T10:29:26;3.08;;;1.20;;
823;SDS011;373;49.342;8.146;2023-07-20T10:31:53;3.17;;;1.35;;
823;SDS011;373;49.342;8.146;2023-07-20T10:34:21;2.53;;;1.30;;
823;SDS011;373;49.342;8.146;2023-07-20T10:36:49;1.42;;;0.90;;
823;SDS011;373;49.342;8.146;2023-07-20T10:39:23;1.85;;;1.10;;
823;SDS011;373;49.342;8.146;2023-07-20T10:41:59;1.23;;;1.13;;
823;SDS011;373;49.342;8.146;2023-07-20T10:44:28;2.20;;;1.05;;
823;SDS011;373;49.342;8.146;2023-07-20T10:46:59;2.05;;;1.20;;
823;SDS011;373;49.342;8.146;2023-07-20T10:49:28;1.15;;;1.00;;
823;SDS011;373;49.342;8.146;2023-07-20T10:51:58;0.93;;;0.93;;
823;SDS011;373;49.342;8.146;2023-07-20T10:57:22;1.30;;;1.10;;
823;SDS011;373;49.342;8.146;2023-07-20T10:59:52;1.73;;;0.80;;
823;SDS011;373;49.342;8.146;2023-07-20T11:02:41;1.77;;;1.40;;
823;SDS011;373;49.342;8.146;2023-07-20T11:05:14;2.25;;;0.80;;
823;SDS011;373;49.342;8.146;2023-07-20T11:07:59;1.70;;;1.00;;
823;SDS011;373;49.342;8.146;2023-07-20T11:10:26;2.03;;;1.13;;
823;SDS011;373;49.342;8.146;2023-07-20T11:15:47;1.75;;;0.90;;
823;SDS011;373;49.342;8.146;2023-07-20T11:18:30;1.65;;;1.25;;
823;SDS011;373;49.342;8.146;2023-07-20T11:21:00;2.15;;;1.27;;
823;SDS011;373;49.342;8.146;2023-07-20T11:23:28;2.08;;;1.02;;
823;SDS011;373;49.342;8.146;2023-07-20T11:25:58;1.58;;;1.23;;
823;SDS011;373;49.342;8.146;2023-07-20T11:28:25;1.73;;;0.80;;
823;SDS011;373;49.342;8.146;2023-07-20T11:30:57;1.27;;;1.15;;
823;SDS011;373;49.342;8.146;2023-07-20T11:33:24;1.98;;;1.20;;
823;SDS011;373;49.342;8.146;2023-07-20T11:35:52;1.58;;;1.00;;
823;SDS011;373;49.342;8.146;2023-07-20T11:38:19;1.55;;;1.38;;
823;SDS011;373;49.342;8.146;2023-07-20T11:40:46;1.15;;;1.00;;
823;SDS011;373;49.342;8.146;2023-07-20T11:43:14;2.42;;;1.05;;
823;SDS011;373;49.342;8.146;2023-07-20T11:45:41;1.10;;;1.00;;
823;SDS011;373;49.342;8.146;2023-07-20T11:48:15;1.65;;;1.27;;
823;SDS011;373;49.342;8.146;2023-07-20T11:50:42;1.17;;;1.10;;
823;SDS011;373;49.342;8.146;2023-07-20T11:53:09;1.25;;;1.15;;
823;SDS011;373;49.342;8.146;2023-07-20T11:55:37;2.15;;;1.48;;
823;SDS011;373;49.342;8.146;2023-07-20T11:58:06;1.85;;;1.40;;
823;SDS011;373;49.342;8.146;2023-07-20T12:00:34;0.93;;;0.93;;
823;SDS011;373;49.342;8.146;2023-07-20T12:03:05;1.00;;;1.00;;
823;SDS011;373;49.342;8.146;2023-07-20T12:05:34;1.75;;;0.90;;
823;SDS011;373;49.342;8.146;2023-07-20T12:08:02;1.63;;;1.30;;
823;SDS011;373;49.342;8.146;2023-07-20T12:10:30;1.95;;;1.10;;
823;SDS011;373;49.342;8.146;2023-07-20T12:13:01;1.45;;;0.85;;
823;SDS011;373;49.342;8.146;2023-07-20T12:15:29;1.77;;;0.93;;
823;SDS011;373;49.342;8.146;2023-07-20T12:17:57;1.27;;;1.10;;
823;SDS011;373;49.342;8.146;2023-07-20T12:20:26;2.03;;;1.20;;
823;SDS011;373;49.342;8.146;2023-07-20T12:22:57;2.47;;;1.10;;
823;SDS011;373;49.342;8.146;2023-07-20T12:25:32;1.20;;;0.98;;
823;SDS011;373;49.342;8.146;2023-07-20T12:28:06;1.30;;;1.20;;
823;SDS011;373;49.342;8.146;2023-07-20T12:30:34;0.90;;;0.90;;
823;SDS011;373;49.342;8.146;2023-07-20T12:33:01;1.00;;;1.00;;
823;SDS011;373;49.342;8.146;2023-07-20T12:35:29;1.77;;;1.17;;
823;SDS011;373;49.342;8.146;2023-07-20T12:37:58;0.80;;;0.80;;
823;SDS011;373;49.342;8.146;2023-07-20T12:40:25;1.20;;;1.15;;
823;SDS011;373;49.342;8.146;2023-07-20T12:42:52;2.15;;;1.13;;
823;SDS011;373;49.342;8.146;2023-07-20T12:45:19;1.23;;;1.13;;
823;SDS011;373;49.342;8.146;2023-07-20T12:47:46;1.20;;;1.10;;
823;SDS011;373;49.342;8.146;2023-07-20T12:50:13;1.60;;;1.15;;
823;SDS011;373;49.342;8.146;2023-07-20T12:52:40;1.33;;;1.15;;
823;SDS011;373;49.342;8.146;2023-07-20T12:55:09;2.25;;;1.08;;
823;SDS011;373;49.342;8.146;2023-07-20T12:57:37;1.42;;;1.20;;
823;SDS011;373;49.342;8.146;2023-07-20T13:00:04;1.27;;;1.15;;
823;SDS011;373;49.342;8.146;2023-07-20T13:02:34;1.40;;;1.10;;
823;SDS011;373;49.342;8.146;2023-07-20T13:05:01;1.10;;;1.00;;
823;SDS011;373;49.342;8.146;2023-07-20T13:07:29;1.27;;;1.17;;
823;SDS011;373;49.342;8.146;2023-07-20T13:09:58;1.77;;;1.20;;
823;SDS011;373;49.342;8.146;2023-07-20T13:12:27;1.75;;;1.15;;
823;SDS011;373;49.342;8.146;2023-07-20T13:14:55;1.10;;;1.05;;
823;SDS011;373;49.342;8.146;2023-07-20T13:17:22;2.45;;;1.17;;
823;SDS011;373;49.342;8.146;2023-07-20T13:19:49;1.38;;;1.27;;
823;SDS011;373;49.342;8.146;2023-07-20T13:22:16;1.27;;;1.17;;
823;SDS011;373;49.342;8.146;2023-07-20T13:24:44;1.67;;;0.80;;
823;SDS011;373;49.342;8.146;2023-07-20T13:27:14;1.40;;;1.17;;
823;SDS011;373;49.342;8.146;2023-07-20T13:29:43;1.05;;;1.00;;
823;SDS011;373;49.342;8.146;2023-07-20T13:32:12;1.27;;;1.17;;
823;SDS011;373;49.342;8.146;2023-07-20T13:34:40;1.83;;;1.27;;
823;SDS011;373;49.342;8.146;2023-07-20T13:37:07;1.83;;;1.13;;
823;SDS011;373;49.342;8.146;2023-07-20T13:39:35;1.27;;;1.10;;
823;SDS011;373;49.342;8.146;2023-07-20T13:42:02;0.90;;;0.90;;
823;SDS011;373;49.342;8.146;2023-07-20T13:44:30;1.63;;;1.13;;
823;SDS011;373;49.342;8.146;2023-07-20T13:46:59;1.52;;;1.40;;
823;SDS011;373;49.342;8.146;2023-07-20T13:49:26;1.40;;;1.15;;
823;SDS011;373;49.342;8.146;2023-07-20T13:51:55;1.38;;;0.88;;
823;SDS011;373;49.342;8.146;2023-07-20T13:54:22;1.00;;;1.00;;
823;SDS011;373;49.342;8.146;2023-07-20T13:56:49;1.25;;;1.15;;
823;SDS011;373;49.342;8.146;2023-07-20T13:59:17;2.15;;;1.10;;
823;SDS011;373;49.342;8.146;2023-07-20T14:01:44;3.22;;;1.23;;
823;SDS011;373;49.342;8.146;2023-07-20T14:04:12;1.08;;;0.98;;
823;SDS011;373;49.342;8.146;2023-07-20T14:06:40;1.15;;;1.05;;
823;SDS011;373;49.342;8.146;2023-07-20T14:09:07;1.65;;;1.30;;
823;SDS011;373;49.342;8.146;2023-07-20T14:11:34;1.42;;;1.33;;
823;SDS011;373;49.342;8.146;2023-07-20T14:14:01;1.10;;;1.00;;
823;SDS011;373;49.342;8.146;2023-07-20T14:16:28;1.30;;;1.17;;
823;SDS011;373;49.342;8.146;2023-07-20T14:18:57;1.85;;;1.10;;
823;SDS011;373;49.342;8.146;2023-07-20T14:21:26;0.80;;;0.80;;
823;SDS011;373;49.342;8.146;2023-07-20T14:23:54;1.17;;;1.00;;
823;SDS011;373;49.342;8.146;2023-07-20T14:26:21;1.45;;;1.25;;
823;SDS011;373;49.342;8.146;2023-07-20T14:28:48;1.10;;;1.00;;
823;SDS011;373;49.342;8.146;2023-07-20T14:31:15;1.23;;;1.13;;
823;SDS011;373;49.342;8.146;2023-07-20T14:33:42;1.85;;;1.33;;
823;SDS011;373;49.342;8.146;2023-07-20T14:36:09;1.50;;;1.40;;
823;SDS011;373;49.342;8.146;2023-07-20T14:38:37;1.10;;;1.00;;
823;SDS011;373;49.342;8.146;2023-07-20T14:41:05;1.02;;;0.98;;
823;SDS011;373;49.342;8.146;2023-07-20T14:43:32;1.00;;;0.85;;
823;SDS011;373;49.342;8.146;2023-07-20T14:45:59;1.95;;;1.30;;
823;SDS011;373;49.342;8.146;2023-07-20T14:48:26;1.48;;;1.00;;
823;SDS011;373;49.342;8.146;2023-07-20T14:50:54;1.30;;;1.20;;
823;SDS011;373;49.342;8.146;2023-07-20T14:53:21;1.00;;;1.00;;
823;SDS011;373;49.342;8.146;2023-07-20T14:55:50;1.33;;;1.23;;
823;SDS011;373;49.342;8.146;2023-07-20T14:58:19;1.30;;;1.10;;
823;SDS011;373;49.342;8.146;2023-07-20T15:00:55;1.58;;;0.90;;
823;SDS011;373;49.342;8.146;2023-07-20T15:03:27;1.33;;;1.20;;
823;SDS011;373;49.342;8.146;2023-07-20T15:05:58;2.15;;;1.20;;
823;SDS011;373;49.342;8.146;2023-07-20T15:08:29;1.30;;;1.20;;
823;SDS011;373;49.342;8.146;2023-07-20T15:11:05;1.40;;;0.98;;
823;SDS011;373;49.342;8.146;2023-07-20T15:13:37;2.45;;;1.00;;
823;SDS011;373;49.342;8.146;2023-07-20T15:16:12;0.98;;;0.98;;
823;SDS011;373;49.342;8.146;2023-07-20T15:19:08;0.98;;;0.98;;
823;SDS011;373;49.342;8.146;2023-07-20T15:21:46;1.65;;;1.10;;
823;SDS011;373;49.342;8.146;2023-07-20T15:24:17;1.48;;;1.00;;
823;SDS011;373;49.342;8.146;2023-07-20T15:32:26;1.50;;;1.17;;
823;SDS011;373;49.342;8.146;2023-07-20T15:34:53;1.35;;;1.10;;
823;SDS011;373;49.342;8.146;2023-07-20T15:37:20;1.23;;;1.13;;
823;SDS011;373;49.342;8.146;2023-07-20T15:39:49;2.40;;;1.20;;
823;SDS011;373;49.342;8.146;2023-07-20T15:42:16;1.80;;;1.40;;
823;SDS011;373;49.342;8.146;2023-07-20T15:44:48;1.13;;;1.02;;
823;SDS011;373;49.342;8.146;2023-07-20T15:47:15;1.00;;;1.00;;
823;SDS011;373;49.342;8.146;2023-07-20T15:49:44;2.33;;;1.33;;
823;SDS011;373;49.342;8.146;2023-07-20T15:52:11;1.48;;;1.33;;
823;SDS011;373;49.342;8.146;2023-07-20T15:54:38;2.45;;;1.13;;
823;SDS011;373;49.342;8.146;2023-07-20T15:57:06;2.47;;;1.30;;
823;SDS011;373;49.342;8.146;2023-07-20T15:59:35;1.30;;;1.20;;
823;SDS011;373;49.342;8.146;2023-07-20T16:02:04;1.58;;;1.48;;
823;SDS011;373;49.342;8.146;2023-07-20T16:04:32;1.63;;;1.30;;
823;SDS011;373;49.342;8.146;2023-07-20T16:07:00;1.30;;;1.20;;
823;SDS011;373;49.342;8.146;2023-07-20T16:09:28;2.35;;;1.10;;
823;SDS011;373;49.342;8.146;2023-07-20T16:11:55;1.73;;;1.50;;
823;SDS011;373;49.342;8.146;2023-07-20T16:14:23;3.72;;;1.02;;
823;SDS011;373;49.342;8.146;2023-07-20T16:16:50;1.98;;;1.20;;
823;SDS011;373;49.342;8.146;2023-07-20T16:19:18;2.60;;;1.25;;
823;SDS011;373;49.342;8.146;2023-07-20T16:21:45;3.03;;;1.02;;
823;SDS011;373;49.342;8.146;2023-07-20T16:24:14;2.45;;;1.10;;
823;SDS011;373;49.342;8.146;2023-07-20T16:26:43;2.63;;;1.27;;
823;SDS011;373;49.342;8.146;2023-07-20T16:29:10;1.23;;;1.13;;
823;SDS011;373;49.342;8.146;2023-07-20T16:31:38;1.27;;;1.17;;
823;SDS011;373;49.342;8.146;2023-07-20T16:34:05;2.10;;;1.55;;
823;SDS011;373;49.342;8.146;2023-07-20T16:36:32;1.58;;;1.33;;
823;SDS011;373;49.342;8.146;2023-07-20T16:39:00;2.35;;;1.40;;
823;SDS011;373;49.342;8.146;2023-07-20T16:41:29;1.77;;;1.10;;
823;SDS011;373;49.342;8.146;2023-07-20T16:43:57;1.60;;;1.50;;
823;SDS011;373;49.342;8.146;2023-07-20T16:46:24;3.45;;;1.63;;
823;SDS011;373;49.342;8.146;2023-07-20T16:48:51;3.35;;;1.30;;
823;SDS011;373;49.342;8.146;2023-07-20T16:51:19;2.67;;;1.30;;
823;SDS011;373;49.342;8.146;2023-07-20T16:53:46;3.95;;;1.40;;
823;SDS011;373;49.342;8.146;2023-07-20T16:56:14;1.70;;;1.27;;
823;SDS011;373;49.342;8.146;2023-07-20T16:58:43;4.25;;;1.73;;
823;SDS011;373;49.342;8.146;2023-07-20T17:01:10;2.25;;;1.30;;
823;SDS011;373;49.342;8.146;2023-07-20T17:03:37;1.38;;;1.27;;
823;SDS011;373;49.342;8.146;2023-07-20T17:06:04;1.30;;;1.20;;
823;SDS011;373;49.342;8.146;2023-07-20T17:08:32;3.35;;;1.52;;
823;SDS011;373;49.342;8.146;2023-07-20T17:11:00;1.60;;;1.35;;
823;SDS011;373;49.342;8.146;2023-07-20T17:13:27;2.40;;;1.40;;
823;SDS011;373;49.342;8.146;2023-07-20T17:15:56;2.45;;;1.40;;
823;SDS011;373;49.342;8.146;2023-07-20T17:18:23;2.08;;;1.48;;
823;SDS011;373;49.342;8.146;2023-07-20T17:20:51;2.80;;;1.17;;
823;SDS011;373;49.342;8.146;2023-07-20T17:23:18;1.80;;;1.45;;
823;SDS011;373;49.342;8.146;2023-07-20T17:25:46;2.50;;;1.40;;
823;SDS011;373;49.342;8.146;2023-07-20T17:28:14;1.42;;;1.33;;
823;SDS011;373;49.342;8.146;2023-07-20T17:30:41;2.60;;;0.90;;
823;SDS011;373;49.342;8.146;2023-07-20T17:33:10;2.30;;;1.10;;
823;SDS011;373;49.342;8.146;2023-07-20T17:35:37;1.85;;;1.30;;
823;SDS011;373;49.342;8.146;2023-07-20T17:38:04;0.85;;;0.85;;
823;SDS011;373;49.342;8.146;2023-07-20T17:40:31;1.23;;;1.13;;
823;SDS011;373;49.342;8.146;2023-07-20T17:42:59;1.10;;;1.00;;
823;SDS011;373;49.342;8.146;2023-07-20T17:45:26;2.15;;;1.13;;
823;SDS011;373;49.342;8.146;2023-07-20T17:47:53;1.27;;;1.17;;
823;SDS011;373;49.342;8.146;2023-07-20T17:50:21;1.77;;;1.00;;
823;SDS011;373;49.342;8.146;2023-07-20T17:52:48;1.85;;;1.20;;
823;SDS011;373;49.342;8.146;2023-07-20T17:55:15;1.70;;;1.15;;
823;SDS011;373;49.342;8.146;2023-07-20T17:57:42;1.42;;;1.08;;
823;SDS011;373;49.342;8.146;2023-07-20T18:00:10;1.70;;;1.20;;
823;SDS011;373;49.342;8.146;2023-07-20T18:02:38;2.38;;;1.35;;
823;SDS011;373;49.342;8.146;2023-07-20T18:05:06;1.00;;;0.90;;
823;SDS011;373;49.342;8.146;2023-07-20T18:07:35;2.60;;;1.10;;
823;SDS011;373;49.342;8.146;2023-07-20T18:10:05;1.40;;;1.30;;
823;SDS011;373;49.342;8.146;2023-07-20T18:12:33;1.27;;;1.13;;
823;SDS011;373;49.342;8.146;2023-07-20T18:15:00;3.08;;;1.10;;
823;SDS011;373;49.342;8.146;2023-07-20T18:17:30;2.20;;;1.20;;
823;SDS011;373;49.342;8.146;2023-07-20T18:19:57;1.70;;;1.27;;
823;SDS011;373;49.342;8.146;2023-07-20T18:22:24;2.00;;;0.82;;
823;SDS011;373;49.342;8.146;2023-07-20T18:25:20;1.52;;;1.27;;
823;SDS011;373;49.342;8.146;2023-07-20T18:27:48;1.70;;;1.05;;
823;SDS011;373;49.342;8.146;2023-07-20T18:30:15;1.50;;;1.30;;
823;SDS011;373;49.342;8.146;2023-07-20T18:32:44;1.30;;;1.20;;
823;SDS011;373;49.342;8.146;2023-07-20T18:35:11;1.38;;;1.27;;
823;SDS011;373;49.342;8.146;2023-07-20T18:37:39;1.27;;;1.00;;
823;SDS011;373;49.342;8.146;2023-07-20T18:40:06;1.27;;;1.17;;
823;SDS011;373;49.342;8.146;2023-07-20T18:42:35;2.33;;;1.08;;
823;SDS011;373;49.342;8.146;2023-07-20T18:45:03;2.70;;;1.15;;